VSP1914 GVAC-DIAP
Flight info
| Callsign | VSP1914 |
|---|---|
| Flight time | 3h 5m |
| Altitude | 23000 |
| Route | IRPOT1A POLMO R976 LUMPO/N0455F350 UR976 ANITI UR979 PIVKI PIVKI1S |
| Aircraft | A306/H-SDE3FGHIRWY/LB1 |
Departure
| Time | 2026-04-28 13:17 |
|---|---|
| Airport | Amílcar Cabral International Airport (GVAC) |
Arrival
| Time | 2026-04-28 16:22 |
|---|---|
| Airport | Félix-Houphouët-Boigny International Airport (DIAP) |
| Time | Latitude | Longitude | Altitude | Speed | Heading |
|---|---|---|---|---|---|
| 2026-04-28 12:50 | 16.73430 | -22.94514 | 156 ft | 0 kts | 90° |
| 2026-04-28 13:05 | 16.73430 | -22.94534 | 156 ft | 4 kts | 90° |
| 2026-04-28 13:05 | 16.73430 | -22.94557 | 156 ft | 4 kts | 92° |
| 2026-04-28 13:05 | 16.73436 | -22.94583 | 156 ft | 4 kts | 131° |
| 2026-04-28 13:06 | 16.73457 | -22.94595 | 156 ft | 4 kts | 174° |
| 2026-04-28 13:06 | 16.73476 | -22.94596 | 156 ft | 0 kts | 178° |
| 2026-04-28 13:10 | 16.73472 | -22.94596 | 156 ft | 2 kts | 178° |
| 2026-04-28 13:10 | 16.73450 | -22.94596 | 156 ft | 5 kts | 178° |
| 2026-04-28 13:10 | 16.73389 | -22.94594 | 156 ft | 13 kts | 179° |
| 2026-04-28 13:11 | 16.73292 | -22.94594 | 156 ft | 14 kts | 180° |
| 2026-04-28 13:11 | 16.73200 | -22.94593 | 156 ft | 13 kts | 178° |
| 2026-04-28 13:11 | 16.73115 | -22.94592 | 156 ft | 11 kts | 182° |
| 2026-04-28 13:11 | 16.73067 | -22.94638 | 156 ft | 9 kts | 247° |
| 2026-04-28 13:12 | 16.73029 | -22.94687 | 157 ft | 9 kts | 205° |
| 2026-04-28 13:12 | 16.72964 | -22.94691 | 156 ft | 10 kts | 177° |
| 2026-04-28 13:12 | 16.72895 | -22.94689 | 156 ft | 10 kts | 180° |
| 2026-04-28 13:12 | 16.72814 | -22.94690 | 156 ft | 14 kts | 180° |
| 2026-04-28 13:13 | 16.72706 | -22.94688 | 156 ft | 17 kts | 179° |
| 2026-04-28 13:13 | 16.72574 | -22.94686 | 156 ft | 21 kts | 179° |
| 2026-04-28 13:13 | 16.72439 | -22.94691 | 156 ft | 14 kts | 198° |
| 2026-04-28 13:13 | 16.72405 | -22.94760 | 155 ft | 6 kts | 268° |
| 2026-04-28 13:14 | 16.72404 | -22.94773 | 155 ft | 0 kts | 268° |
| 2026-04-28 13:14 | 16.72404 | -22.94774 | 155 ft | 0 kts | 268° |
| 2026-04-28 13:14 | 16.72404 | -22.94778 | 155 ft | 1 kts | 268° |
| 2026-04-28 13:14 | 16.72404 | -22.94782 | 155 ft | 1 kts | 268° |
| 2026-04-28 13:15 | 16.72404 | -22.94795 | 155 ft | 5 kts | 268° |
| 2026-04-28 13:15 | 16.72403 | -22.94852 | 155 ft | 11 kts | 274° |
| 2026-04-28 13:15 | 16.72439 | -22.94885 | 156 ft | 6 kts | 352° |
| 2026-04-28 13:15 | 16.72441 | -22.94885 | 156 ft | 0 kts | 353° |
| 2026-04-28 13:16 | 16.72508 | -22.94888 | 156 ft | 36 kts | 359° |
| 2026-04-28 13:16 | 16.73014 | -22.94892 | 159 ft | 106 kts | 359° |
| 2026-04-28 13:16 | 16.73953 | -22.94898 | 157 ft | 162 kts | 0° |
| 2026-04-28 13:16 | 16.75207 | -22.94916 | 569 ft | 185 kts | 2° |
| 2026-04-28 13:17 | 16.76470 | -22.94931 | 1625 ft | 180 kts | 2° |
| 2026-04-28 13:17 | 16.77814 | -22.94943 | 2089 ft | 209 kts | 2° |
| 2026-04-28 13:17 | 16.79398 | -22.94955 | 2383 ft | 243 kts | 1° |
| 2026-04-28 13:17 | 16.81083 | -22.94956 | 3332 ft | 243 kts | 1° |
| 2026-04-28 13:18 | 16.82803 | -22.94954 | 4219 ft | 252 kts | 1° |
| 2026-04-28 13:18 | 16.84559 | -22.94663 | 5108 ft | 261 kts | 19° |
| 2026-04-28 13:18 | 16.86092 | -22.93630 | 5998 ft | 269 kts | 46° |
| 2026-04-28 13:18 | 16.87029 | -22.91898 | 6803 ft | 283 kts | 74° |
| 2026-04-28 13:19 | 16.87203 | -22.89842 | 7809 ft | 285 kts | 89° |
| 2026-04-28 13:19 | 16.87194 | -22.87742 | 8678 ft | 294 kts | 91° |
| 2026-04-28 13:19 | 16.87184 | -22.85575 | 9496 ft | 303 kts | 91° |
| 2026-04-28 13:19 | 16.87182 | -22.83352 | 10303 ft | 311 kts | 91° |
| 2026-04-28 13:20 | 16.87185 | -22.81010 | 10719 ft | 333 kts | 91° |
| 2026-04-28 13:20 | 16.87195 | -22.78527 | 11029 ft | 352 kts | 91° |
| 2026-04-28 13:20 | 16.86941 | -22.75966 | 11288 ft | 368 kts | 108° |
| 2026-04-28 13:20 | 16.85794 | -22.73546 | 11561 ft | 379 kts | 126° |
| 2026-04-28 13:21 | 16.84241 | -22.71274 | 11917 ft | 390 kts | 129° |
| 2026-04-28 13:21 | 16.82625 | -22.68966 | 12433 ft | 395 kts | 129° |
| 2026-04-28 13:21 | 16.81003 | -22.66618 | 12976 ft | 400 kts | 128° |
| 2026-04-28 13:21 | 16.79375 | -22.64239 | 13522 ft | 405 kts | 128° |
| 2026-04-28 13:22 | 16.77756 | -22.61858 | 14059 ft | 408 kts | 127° |
| 2026-04-28 13:22 | 16.76105 | -22.59415 | 14585 ft | 412 kts | 127° |
| 2026-04-28 13:22 | 16.74441 | -22.56960 | 15092 ft | 416 kts | 127° |
| 2026-04-28 13:22 | 16.72761 | -22.54482 | 15627 ft | 420 kts | 127° |
| 2026-04-28 13:23 | 16.71064 | -22.51976 | 16129 ft | 423 kts | 127° |
| 2026-04-28 13:23 | 16.69356 | -22.49456 | 16646 ft | 427 kts | 126° |
| 2026-04-28 13:23 | 16.67633 | -22.46913 | 17124 ft | 431 kts | 126° |
| 2026-04-28 13:23 | 16.65916 | -22.44379 | 17597 ft | 434 kts | 126° |
| 2026-04-28 13:24 | 16.64162 | -22.41790 | 18062 ft | 438 kts | 126° |
| 2026-04-28 13:24 | 16.62395 | -22.39183 | 18514 ft | 441 kts | 126° |
| 2026-04-28 13:24 | 16.60621 | -22.36564 | 18939 ft | 444 kts | 126° |
| 2026-04-28 13:24 | 16.58829 | -22.33922 | 19350 ft | 447 kts | 126° |
| 2026-04-28 13:25 | 16.57023 | -22.31260 | 19730 ft | 451 kts | 126° |
| 2026-04-28 13:25 | 16.55269 | -22.28544 | 20102 ft | 454 kts | 121° |
| 2026-04-28 13:25 | 16.53863 | -22.25622 | 20471 ft | 457 kts | 115° |
| 2026-04-28 13:25 | 16.52557 | -22.22587 | 20790 ft | 461 kts | 114° |
| 2026-04-28 13:26 | 16.51256 | -22.19521 | 21140 ft | 463 kts | 114° |
| 2026-04-28 13:26 | 16.49947 | -22.16447 | 21488 ft | 465 kts | 114° |
| 2026-04-28 13:26 | 16.48625 | -22.13357 | 21825 ft | 468 kts | 115° |
| 2026-04-28 13:26 | 16.47293 | -22.10251 | 22116 ft | 471 kts | 115° |
| 2026-04-28 13:27 | 16.45951 | -22.07126 | 22433 ft | 473 kts | 115° |
| 2026-04-28 13:27 | 16.44605 | -22.03992 | 22720 ft | 476 kts | 115° |
| 2026-04-28 13:27 | 16.43250 | -22.00841 | 22984 ft | 478 kts | 115° |
| 2026-04-28 13:27 | 16.41893 | -21.97690 | 23049 ft | 470 kts | 115° |
| 2026-04-28 13:28 | 16.40585 | -21.94649 | 23043 ft | 450 kts | 115° |
| 2026-04-28 13:28 | 16.39323 | -21.91719 | 23051 ft | 439 kts | 115° |
| 2026-04-28 13:28 | 16.38074 | -21.88823 | 23054 ft | 438 kts | 115° |
| 2026-04-28 13:28 | 16.36822 | -21.85921 | 23051 ft | 439 kts | 115° |
| 2026-04-28 13:29 | 16.35571 | -21.83022 | 23052 ft | 439 kts | 115° |
| 2026-04-28 13:29 | 16.34314 | -21.80112 | 23054 ft | 439 kts | 115° |
| 2026-04-28 13:29 | 16.33080 | -21.77251 | 23053 ft | 439 kts | 115° |
| 2026-04-28 13:29 | 16.31828 | -21.74346 | 23056 ft | 439 kts | 115° |
| 2026-04-28 13:30 | 16.30571 | -21.71443 | 23054 ft | 439 kts | 115° |
| 2026-04-28 13:30 | 16.29312 | -21.68535 | 23055 ft | 439 kts | 115° |
| 2026-04-28 13:30 | 16.28057 | -21.65634 | 23056 ft | 439 kts | 115° |
| 2026-04-28 13:30 | 16.26851 | -21.62717 | 23055 ft | 439 kts | 113° |
| 2026-04-28 13:31 | 16.24687 | -21.56779 | 23052 ft | 440 kts | 111° |
| 2026-04-28 13:31 | 16.23648 | -21.53788 | 23052 ft | 440 kts | 110° |
| 2026-04-28 13:31 | 16.22605 | -21.50785 | 23052 ft | 440 kts | 110° |
| 2026-04-28 13:32 | 16.21557 | -21.47797 | 23053 ft | 440 kts | 111° |
| 2026-04-28 13:32 | 16.20498 | -21.44805 | 23056 ft | 440 kts | 111° |
| 2026-04-28 13:32 | 16.19435 | -21.41822 | 23057 ft | 440 kts | 111° |
| 2026-04-28 13:32 | 16.18365 | -21.38841 | 23052 ft | 440 kts | 111° |
| 2026-04-28 13:33 | 16.17295 | -21.35860 | 23058 ft | 440 kts | 111° |
| 2026-04-28 13:33 | 16.16236 | -21.32910 | 23056 ft | 440 kts | 111° |
| 2026-04-28 13:33 | 16.15152 | -21.29890 | 23052 ft | 440 kts | 111° |
| 2026-04-28 13:33 | 16.14092 | -21.26941 | 23056 ft | 440 kts | 111° |
| 2026-04-28 13:34 | 16.13018 | -21.23953 | 23054 ft | 440 kts | 111° |
| 2026-04-28 13:34 | 16.11949 | -21.20978 | 23049 ft | 438 kts | 111° |
| 2026-04-28 13:34 | 16.10901 | -21.18058 | 23101 ft | 422 kts | 111° |
| 2026-04-28 13:34 | 16.09887 | -21.15238 | 23437 ft | 414 kts | 111° |
| 2026-04-28 13:35 | 16.08863 | -21.12398 | 23648 ft | 423 kts | 111° |
| 2026-04-28 13:35 | 16.07814 | -21.09498 | 23856 ft | 434 kts | 111° |
| 2026-04-28 13:35 | 16.06739 | -21.06526 | 24053 ft | 445 kts | 111° |
| 2026-04-28 13:35 | 16.05655 | -21.03515 | 24244 ft | 454 kts | 111° |
| 2026-04-28 13:36 | 16.04537 | -21.00410 | 24422 ft | 463 kts | 111° |
| 2026-04-28 13:36 | 16.03392 | -20.97238 | 24571 ft | 471 kts | 111° |
| 2026-04-28 13:36 | 16.02232 | -20.94030 | 24722 ft | 478 kts | 111° |
| 2026-04-28 13:36 | 16.01057 | -20.90775 | 24843 ft | 484 kts | 111° |
| 2026-04-28 13:37 | 15.99863 | -20.87474 | 24971 ft | 490 kts | 111° |
| 2026-04-28 13:37 | 15.98654 | -20.84134 | 25135 ft | 495 kts | 111° |
| 2026-04-28 13:37 | 15.97438 | -20.80776 | 25381 ft | 496 kts | 111° |
| 2026-04-28 13:37 | 15.96218 | -20.77411 | 25572 ft | 498 kts | 111° |
| 2026-04-28 13:38 | 15.95008 | -20.74077 | 25769 ft | 500 kts | 111° |
| 2026-04-28 13:38 | 15.93778 | -20.70689 | 25943 ft | 503 kts | 111° |
| 2026-04-28 13:38 | 15.92542 | -20.67278 | 26138 ft | 505 kts | 111° |
| 2026-04-28 13:38 | 15.91302 | -20.63858 | 26340 ft | 507 kts | 111° |
| 2026-04-28 13:39 | 15.90059 | -20.60429 | 26544 ft | 508 kts | 111° |
| 2026-04-28 13:39 | 15.88809 | -20.56986 | 26715 ft | 511 kts | 111° |
| 2026-04-28 13:39 | 15.87549 | -20.53524 | 26899 ft | 513 kts | 111° |
| 2026-04-28 13:39 | 15.86285 | -20.50054 | 27097 ft | 514 kts | 111° |
| 2026-04-28 13:40 | 15.85019 | -20.46577 | 27263 ft | 516 kts | 111° |
| 2026-04-28 13:40 | 15.83746 | -20.43082 | 27434 ft | 518 kts | 111° |
| 2026-04-28 13:40 | 15.82462 | -20.39562 | 27610 ft | 520 kts | 111° |
| 2026-04-28 13:40 | 15.81180 | -20.36045 | 27787 ft | 521 kts | 111° |
| 2026-04-28 13:41 | 15.79909 | -20.32564 | 27944 ft | 523 kts | 111° |
| 2026-04-28 13:41 | 15.78618 | -20.29026 | 28130 ft | 524 kts | 111° |
| 2026-04-28 13:41 | 15.77324 | -20.25481 | 28315 ft | 525 kts | 111° |
| 2026-04-28 13:41 | 15.76030 | -20.21938 | 28546 ft | 525 kts | 111° |
| 2026-04-28 13:42 | 15.74736 | -20.18396 | 28796 ft | 524 kts | 111° |
| 2026-04-28 13:42 | 15.73441 | -20.14860 | 29013 ft | 524 kts | 112° |
| 2026-04-28 13:42 | 15.72144 | -20.11322 | 29220 ft | 525 kts | 112° |
| 2026-04-28 13:42 | 15.70848 | -20.07785 | 29468 ft | 524 kts | 112° |
| 2026-04-28 13:43 | 15.69547 | -20.04234 | 29714 ft | 524 kts | 112° |
| 2026-04-28 13:43 | 15.68246 | -20.00695 | 29971 ft | 524 kts | 112° |
| 2026-04-28 13:43 | 15.66955 | -19.97165 | 30192 ft | 524 kts | 112° |
| 2026-04-28 13:43 | 15.65671 | -19.93629 | 30421 ft | 524 kts | 111° |
| 2026-04-28 13:44 | 15.64391 | -19.90091 | 30640 ft | 524 kts | 111° |
| 2026-04-28 13:44 | 15.63108 | -19.86548 | 30880 ft | 524 kts | 111° |
| 2026-04-28 13:44 | 15.61825 | -19.83009 | 31136 ft | 524 kts | 111° |
| 2026-04-28 13:44 | 15.60541 | -19.79470 | 31370 ft | 523 kts | 112° |
| 2026-04-28 13:45 | 15.59255 | -19.75940 | 31615 ft | 523 kts | 112° |
| 2026-04-28 13:45 | 15.57981 | -19.72440 | 31879 ft | 523 kts | 112° |
| 2026-04-28 13:45 | 15.56699 | -19.68911 | 32130 ft | 522 kts | 112° |
| 2026-04-28 13:45 | 15.55418 | -19.65392 | 32338 ft | 522 kts | 112° |
| 2026-04-28 13:46 | 15.54565 | -19.63054 | 32492 ft | 523 kts | 112° |
| 2026-04-28 13:46 | 15.53277 | -19.59528 | 32750 ft | 522 kts | 112° |
| 2026-04-28 13:46 | 15.51991 | -19.56007 | 32975 ft | 522 kts | 112° |
| 2026-04-28 13:46 | 15.50705 | -19.52486 | 33243 ft | 521 kts | 112° |
| 2026-04-28 13:47 | 15.49419 | -19.48967 | 33513 ft | 520 kts | 112° |
| 2026-04-28 13:47 | 15.48131 | -19.45446 | 33725 ft | 521 kts | 112° |
| 2026-04-28 13:47 | 15.46863 | -19.41980 | 33969 ft | 520 kts | 112° |
| 2026-04-28 13:47 | 15.45578 | -19.38467 | 34176 ft | 521 kts | 112° |
| 2026-04-28 13:48 | 15.44294 | -19.34958 | 34404 ft | 520 kts | 112° |
| 2026-04-28 13:48 | 15.43010 | -19.31453 | 34677 ft | 519 kts | 112° |
| 2026-04-28 13:48 | 15.41729 | -19.27958 | 34953 ft | 518 kts | 112° |
| 2026-04-28 13:48 | 15.40449 | -19.24473 | 34998 ft | 514 kts | 112° |
| 2026-04-28 13:49 | 15.37935 | -19.17616 | 35009 ft | 505 kts | 112° |
| 2026-04-28 13:49 | 15.35434 | -19.10808 | 35010 ft | 505 kts | 112° |
| 2026-04-28 13:50 | 15.32931 | -19.04009 | 35010 ft | 505 kts | 112° |
| 2026-04-28 13:50 | 15.30441 | -18.97257 | 35004 ft | 504 kts | 112° |
| 2026-04-28 13:51 | 15.27941 | -18.90466 | 35002 ft | 504 kts | 112° |
| 2026-04-28 13:51 | 15.25436 | -18.83678 | 34995 ft | 504 kts | 112° |
| 2026-04-28 13:52 | 15.22926 | -18.76890 | 34993 ft | 504 kts | 112° |
| 2026-04-28 13:52 | 15.20421 | -18.70105 | 35000 ft | 505 kts | 112° |
| 2026-04-28 13:53 | 15.17903 | -18.63314 | 34998 ft | 504 kts | 112° |
| 2026-04-28 13:53 | 15.15403 | -18.56574 | 35000 ft | 504 kts | 112° |
| 2026-04-28 13:54 | 15.12887 | -18.49793 | 35003 ft | 504 kts | 113° |
| 2026-04-28 13:54 | 15.10381 | -18.43024 | 35002 ft | 504 kts | 113° |
| 2026-04-28 13:55 | 15.07853 | -18.36244 | 35003 ft | 504 kts | 113° |
| 2026-04-28 13:55 | 15.05332 | -18.29473 | 34993 ft | 503 kts | 112° |
| 2026-04-28 13:56 | 15.02829 | -18.22748 | 35003 ft | 503 kts | 113° |
| 2026-04-28 13:56 | 15.00306 | -18.15987 | 35000 ft | 503 kts | 113° |
| 2026-04-28 13:57 | 14.97785 | -18.09233 | 34986 ft | 502 kts | 113° |
| 2026-04-28 13:57 | 14.95265 | -18.02487 | 34984 ft | 502 kts | 113° |
| 2026-04-28 13:58 | 14.92739 | -17.95752 | 34987 ft | 502 kts | 113° |
| 2026-04-28 13:58 | 14.90219 | -17.89072 | 34994 ft | 501 kts | 113° |
| 2026-04-28 13:59 | 14.87684 | -17.82359 | 34986 ft | 501 kts | 113° |
| 2026-04-28 13:59 | 14.85152 | -17.75649 | 34988 ft | 501 kts | 113° |
| 2026-04-28 14:00 | 14.82615 | -17.68950 | 34986 ft | 500 kts | 113° |
| 2026-04-28 14:00 | 14.80081 | -17.62259 | 35001 ft | 500 kts | 113° |
| 2026-04-28 14:01 | 14.77560 | -17.55603 | 34988 ft | 500 kts | 113° |
| 2026-04-28 14:01 | 14.74985 | -17.48940 | 34981 ft | 499 kts | 117° |
| 2026-04-28 14:02 | 14.71456 | -17.42813 | 34986 ft | 495 kts | 126° |
| 2026-04-28 14:02 | 14.67628 | -17.36891 | 34985 ft | 494 kts | 127° |
| 2026-04-28 14:03 | 14.63778 | -17.31054 | 34995 ft | 494 kts | 127° |
| 2026-04-28 14:03 | 14.59905 | -17.25170 | 34980 ft | 494 kts | 127° |
| 2026-04-28 14:04 | 14.56054 | -17.19290 | 34974 ft | 495 kts | 127° |
| 2026-04-28 14:04 | 14.52198 | -17.13401 | 34971 ft | 494 kts | 127° |
| 2026-04-28 14:05 | 14.48350 | -17.07530 | 34971 ft | 494 kts | 127° |
| 2026-04-28 14:05 | 14.44500 | -17.01660 | 34972 ft | 494 kts | 127° |
| 2026-04-28 14:06 | 14.40647 | -16.95789 | 34971 ft | 494 kts | 127° |
| 2026-04-28 14:06 | 14.36813 | -16.89952 | 34971 ft | 493 kts | 127° |
| 2026-04-28 14:07 | 14.32961 | -16.84093 | 34971 ft | 493 kts | 127° |
| 2026-04-28 14:07 | 14.29114 | -16.78245 | 34971 ft | 492 kts | 127° |
| 2026-04-28 14:08 | 14.25269 | -16.72402 | 34972 ft | 492 kts | 127° |
| 2026-04-28 14:08 | 14.21443 | -16.66591 | 34970 ft | 492 kts | 127° |
| 2026-04-28 14:09 | 14.17599 | -16.60757 | 34971 ft | 491 kts | 127° |
| 2026-04-28 14:09 | 14.13749 | -16.54931 | 34977 ft | 491 kts | 127° |
| 2026-04-28 14:10 | 14.09907 | -16.49113 | 34980 ft | 491 kts | 127° |
| 2026-04-28 14:10 | 14.06064 | -16.43289 | 34979 ft | 491 kts | 127° |
| 2026-04-28 14:11 | 14.02222 | -16.37475 | 34985 ft | 490 kts | 127° |
| 2026-04-28 14:11 | 13.98383 | -16.31670 | 34987 ft | 490 kts | 127° |
| 2026-04-28 14:12 | 13.94570 | -16.25912 | 34999 ft | 489 kts | 127° |
| 2026-04-28 14:12 | 13.90732 | -16.20122 | 34988 ft | 489 kts | 127° |
| 2026-04-28 14:13 | 13.86893 | -16.14325 | 34984 ft | 490 kts | 127° |
| 2026-04-28 14:13 | 13.83050 | -16.08526 | 34982 ft | 490 kts | 127° |
| 2026-04-28 14:14 | 13.79225 | -16.02767 | 34981 ft | 490 kts | 127° |
| 2026-04-28 14:14 | 13.75374 | -15.96974 | 34979 ft | 490 kts | 127° |
| 2026-04-28 14:15 | 13.71532 | -15.91189 | 34980 ft | 489 kts | 127° |
| 2026-04-28 14:15 | 13.67687 | -15.85410 | 34980 ft | 489 kts | 127° |
| 2026-04-28 14:16 | 13.63837 | -15.79632 | 34971 ft | 489 kts | 127° |
| 2026-04-28 14:16 | 13.59994 | -15.73859 | 34972 ft | 489 kts | 127° |
| 2026-04-28 14:17 | 13.56168 | -15.68119 | 34971 ft | 489 kts | 127° |
| 2026-04-28 14:17 | 13.52326 | -15.62355 | 34963 ft | 488 kts | 127° |
| 2026-04-28 14:18 | 13.48482 | -15.56600 | 34965 ft | 488 kts | 127° |
| 2026-04-28 14:18 | 13.44634 | -15.50837 | 34966 ft | 489 kts | 127° |
| 2026-04-28 14:19 | 13.40786 | -15.45078 | 34960 ft | 489 kts | 127° |
| 2026-04-28 14:19 | 13.36939 | -15.39317 | 34954 ft | 489 kts | 127° |
| 2026-04-28 14:20 | 13.33087 | -15.33560 | 34956 ft | 489 kts | 127° |
| 2026-04-28 14:20 | 13.29266 | -15.27848 | 34946 ft | 489 kts | 127° |
| 2026-04-28 14:21 | 13.25408 | -15.22093 | 34946 ft | 489 kts | 127° |
| 2026-04-28 14:21 | 13.21553 | -15.16351 | 34938 ft | 488 kts | 127° |
| 2026-04-28 14:22 | 13.17698 | -15.10603 | 34941 ft | 488 kts | 127° |
| 2026-04-28 14:22 | 13.13886 | -15.04925 | 34940 ft | 481 kts | 127° |
| 2026-04-28 14:23 | 13.10120 | -14.99323 | 34938 ft | 474 kts | 127° |
| 2026-04-28 14:23 | 13.06381 | -14.93756 | 34935 ft | 473 kts | 127° |
| 2026-04-28 14:24 | 13.02643 | -14.88196 | 34935 ft | 473 kts | 127° |
| 2026-04-28 14:24 | 12.98898 | -14.82640 | 34936 ft | 473 kts | 127° |
| 2026-04-28 14:25 | 12.95174 | -14.77118 | 34935 ft | 473 kts | 127° |
| 2026-04-28 14:25 | 12.91429 | -14.71562 | 34933 ft | 473 kts | 127° |
| 2026-04-28 14:26 | 12.87690 | -14.66012 | 34932 ft | 473 kts | 127° |
| 2026-04-28 14:26 | 12.83948 | -14.60468 | 34933 ft | 473 kts | 127° |
| 2026-04-28 14:27 | 12.80206 | -14.54932 | 34936 ft | 472 kts | 127° |
| 2026-04-28 14:27 | 12.76467 | -14.49396 | 34939 ft | 472 kts | 127° |
| 2026-04-28 14:28 | 12.72729 | -14.43871 | 34928 ft | 472 kts | 127° |
| 2026-04-28 14:28 | 12.68988 | -14.38343 | 34923 ft | 472 kts | 127° |
| 2026-04-28 14:29 | 12.65262 | -14.32837 | 34923 ft | 472 kts | 127° |
| 2026-04-28 14:29 | 12.61518 | -14.27306 | 34927 ft | 472 kts | 127° |
| 2026-04-28 14:30 | 12.57773 | -14.21777 | 34925 ft | 472 kts | 127° |
| 2026-04-28 14:30 | 12.54637 | -14.17156 | 34920 ft | 472 kts | 127° |
| 2026-04-28 14:31 | 12.50917 | -14.11675 | 34916 ft | 471 kts | 127° |
| 2026-04-28 14:31 | 12.47178 | -14.06168 | 34915 ft | 471 kts | 127° |
| 2026-04-28 14:32 | 12.43434 | -14.00656 | 34915 ft | 471 kts | 127° |
| 2026-04-28 14:32 | 12.39697 | -13.95158 | 34915 ft | 470 kts | 127° |
| 2026-04-28 14:33 | 12.35963 | -13.89665 | 34915 ft | 470 kts | 127° |
| 2026-04-28 14:33 | 12.32227 | -13.84170 | 34916 ft | 470 kts | 127° |
| 2026-04-28 14:34 | 12.26628 | -13.75973 | 34914 ft | 470 kts | 128° |
| 2026-04-28 14:35 | 12.22622 | -13.70701 | 34908 ft | 469 kts | 131° |
| 2026-04-28 14:35 | 12.18471 | -13.65544 | 34916 ft | 469 kts | 131° |
| 2026-04-28 14:36 | 12.14327 | -13.60385 | 34915 ft | 469 kts | 131° |
| 2026-04-28 14:36 | 12.10210 | -13.55208 | 34927 ft | 469 kts | 131° |
| 2026-04-28 14:37 | 12.06133 | -13.50063 | 34916 ft | 469 kts | 131° |
| 2026-04-28 14:37 | 12.02031 | -13.44875 | 34916 ft | 469 kts | 131° |
| 2026-04-28 14:38 | 11.97919 | -13.39677 | 34916 ft | 469 kts | 131° |
| 2026-04-28 14:38 | 11.93816 | -13.34504 | 34914 ft | 467 kts | 131° |
| 2026-04-28 14:39 | 11.89719 | -13.29347 | 34906 ft | 467 kts | 131° |
| 2026-04-28 14:39 | 11.85632 | -13.24193 | 34897 ft | 467 kts | 131° |
| 2026-04-28 14:40 | 11.81556 | -13.19066 | 34897 ft | 467 kts | 131° |
| 2026-04-28 14:40 | 11.77499 | -13.13879 | 34896 ft | 468 kts | 128° |
| 2026-04-28 14:41 | 11.73741 | -13.08449 | 34896 ft | 468 kts | 126° |
| 2026-04-28 14:41 | 11.70076 | -13.02932 | 34898 ft | 468 kts | 126° |
| 2026-04-28 14:42 | 11.66424 | -12.97480 | 34897 ft | 468 kts | 126° |
| 2026-04-28 14:42 | 11.62722 | -12.92014 | 34898 ft | 468 kts | 126° |
| 2026-04-28 14:43 | 11.59013 | -12.86563 | 34904 ft | 467 kts | 127° |
| 2026-04-28 14:43 | 11.55304 | -12.81115 | 34905 ft | 467 kts | 126° |
| 2026-04-28 14:44 | 11.51598 | -12.75670 | 34906 ft | 467 kts | 127° |
| 2026-04-28 14:44 | 11.47887 | -12.70222 | 34908 ft | 467 kts | 127° |
| 2026-04-28 14:45 | 11.44179 | -12.64777 | 34908 ft | 467 kts | 127° |
| 2026-04-28 14:45 | 11.40467 | -12.59336 | 34907 ft | 467 kts | 127° |
| 2026-04-28 14:46 | 11.36780 | -12.53929 | 34898 ft | 467 kts | 127° |
| 2026-04-28 14:46 | 11.33074 | -12.48500 | 34897 ft | 466 kts | 127° |
| 2026-04-28 14:47 | 11.29369 | -12.43073 | 34896 ft | 466 kts | 127° |
| 2026-04-28 14:47 | 11.25654 | -12.37636 | 34897 ft | 466 kts | 127° |
| 2026-04-28 14:48 | 11.21917 | -12.32294 | 34897 ft | 466 kts | 128° |
| 2026-04-28 14:48 | 11.18105 | -12.26954 | 34898 ft | 465 kts | 128° |
| 2026-04-28 14:49 | 11.14289 | -12.21624 | 34897 ft | 466 kts | 128° |
| 2026-04-28 14:49 | 11.10480 | -12.16291 | 34896 ft | 465 kts | 128° |
| 2026-04-28 14:50 | 11.06678 | -12.10961 | 34897 ft | 465 kts | 128° |
| 2026-04-28 14:50 | 11.02891 | -12.05651 | 34896 ft | 465 kts | 128° |
| 2026-04-28 14:51 | 10.99090 | -12.00326 | 34897 ft | 464 kts | 128° |
| 2026-04-28 14:51 | 10.95294 | -11.95011 | 34897 ft | 463 kts | 128° |
| 2026-04-28 14:52 | 10.91519 | -11.89730 | 34896 ft | 463 kts | 128° |
| 2026-04-28 14:52 | 10.87736 | -11.84432 | 34898 ft | 463 kts | 128° |
| 2026-04-28 14:53 | 10.83943 | -11.79126 | 34898 ft | 463 kts | 128° |
| 2026-04-28 14:53 | 10.80161 | -11.73839 | 34897 ft | 462 kts | 128° |
| 2026-04-28 14:54 | 10.76373 | -11.68553 | 34896 ft | 462 kts | 128° |
| 2026-04-28 14:54 | 10.72591 | -11.63274 | 34898 ft | 462 kts | 128° |
| 2026-04-28 14:55 | 10.68805 | -11.57993 | 34897 ft | 461 kts | 128° |
| 2026-04-28 14:55 | 10.64998 | -11.52748 | 34899 ft | 461 kts | 129° |
| 2026-04-28 14:56 | 10.61089 | -11.47575 | 34896 ft | 461 kts | 129° |
| 2026-04-28 14:56 | 10.57160 | -11.42418 | 34886 ft | 460 kts | 129° |
| 2026-04-28 14:57 | 10.53261 | -11.37290 | 34891 ft | 461 kts | 129° |
| 2026-04-28 14:57 | 10.49351 | -11.32127 | 34898 ft | 461 kts | 129° |
| 2026-04-28 14:58 | 10.45444 | -11.26964 | 34899 ft | 461 kts | 129° |
| 2026-04-28 14:58 | 10.41531 | -11.21797 | 34896 ft | 461 kts | 129° |
| 2026-04-28 14:59 | 10.37641 | -11.16661 | 34897 ft | 461 kts | 129° |
| 2026-04-28 14:59 | 10.33728 | -11.11505 | 34897 ft | 460 kts | 129° |
| 2026-04-28 15:00 | 10.29812 | -11.06343 | 34896 ft | 460 kts | 129° |
| 2026-04-28 15:00 | 10.25897 | -11.01183 | 34895 ft | 460 kts | 128° |
| 2026-04-28 15:01 | 10.22413 | -10.95758 | 34897 ft | 461 kts | 123° |
| 2026-04-28 15:01 | 10.19026 | -10.90202 | 34898 ft | 462 kts | 123° |
| 2026-04-28 15:02 | 10.15674 | -10.84649 | 34906 ft | 462 kts | 123° |
| 2026-04-28 15:02 | 10.12310 | -10.79087 | 34902 ft | 461 kts | 123° |
| 2026-04-28 15:03 | 10.08933 | -10.73553 | 34896 ft | 461 kts | 124° |
| 2026-04-28 15:03 | 10.05287 | -10.68240 | 34897 ft | 459 kts | 127° |
| 2026-04-28 15:04 | 10.01508 | -10.63015 | 34898 ft | 459 kts | 128° |
| 2026-04-28 15:04 | 9.97744 | -10.57795 | 34898 ft | 458 kts | 127° |
| 2026-04-28 15:05 | 9.94011 | -10.52564 | 34896 ft | 457 kts | 127° |
| 2026-04-28 15:05 | 9.90307 | -10.47359 | 34897 ft | 457 kts | 127° |
| 2026-04-28 15:06 | 9.86589 | -10.42129 | 34898 ft | 457 kts | 127° |
| 2026-04-28 15:06 | 9.82863 | -10.36894 | 34898 ft | 457 kts | 127° |
| 2026-04-28 15:07 | 9.79162 | -10.31696 | 34897 ft | 457 kts | 127° |
| 2026-04-28 15:07 | 9.75443 | -10.26472 | 34897 ft | 457 kts | 127° |
| 2026-04-28 15:08 | 9.71715 | -10.21246 | 34897 ft | 457 kts | 127° |
| 2026-04-28 15:08 | 9.67980 | -10.16010 | 34897 ft | 457 kts | 127° |
| 2026-04-28 15:09 | 9.64276 | -10.10818 | 34896 ft | 457 kts | 127° |
| 2026-04-28 15:09 | 9.60544 | -10.05598 | 34898 ft | 457 kts | 127° |
| 2026-04-28 15:10 | 9.56807 | -10.00383 | 34895 ft | 457 kts | 127° |
| 2026-04-28 15:10 | 9.53066 | -9.95166 | 34887 ft | 456 kts | 127° |
| 2026-04-28 15:11 | 9.49351 | -9.89985 | 34878 ft | 457 kts | 127° |
| 2026-04-28 15:11 | 9.45608 | -9.84771 | 34880 ft | 457 kts | 127° |
| 2026-04-28 15:12 | 9.41865 | -9.79558 | 34878 ft | 457 kts | 127° |
| 2026-04-28 15:12 | 9.38125 | -9.74354 | 34877 ft | 457 kts | 127° |
| 2026-04-28 15:13 | 9.34407 | -9.69182 | 34880 ft | 456 kts | 127° |
| 2026-04-28 15:13 | 9.30661 | -9.63977 | 34878 ft | 456 kts | 127° |
| 2026-04-28 15:14 | 9.26918 | -9.58771 | 34880 ft | 457 kts | 127° |
| 2026-04-28 15:14 | 9.23197 | -9.53595 | 34880 ft | 457 kts | 127° |
| 2026-04-28 15:15 | 9.19447 | -9.48388 | 34880 ft | 457 kts | 127° |
| 2026-04-28 15:15 | 9.15705 | -9.43197 | 34880 ft | 456 kts | 127° |
| 2026-04-28 15:16 | 9.11958 | -9.37997 | 34878 ft | 456 kts | 127° |
| 2026-04-28 15:16 | 9.08844 | -9.33675 | 34879 ft | 456 kts | 127° |
| 2026-04-28 15:17 | 9.04500 | -9.27631 | 34878 ft | 457 kts | 126° |
| 2026-04-28 15:17 | 9.00875 | -9.22365 | 34878 ft | 457 kts | 125° |
| 2026-04-28 15:18 | 8.97288 | -9.17058 | 34877 ft | 457 kts | 125° |
| 2026-04-28 15:18 | 8.94292 | -9.12635 | 34878 ft | 457 kts | 125° |
| 2026-04-28 15:19 | 8.90675 | -9.07320 | 34879 ft | 457 kts | 125° |
| 2026-04-28 15:19 | 8.87086 | -9.02057 | 34877 ft | 457 kts | 125° |
| 2026-04-28 15:20 | 8.83472 | -8.96762 | 34880 ft | 457 kts | 125° |
| 2026-04-28 15:20 | 8.79856 | -8.91461 | 34877 ft | 457 kts | 125° |
| 2026-04-28 15:21 | 8.76260 | -8.86193 | 34877 ft | 457 kts | 125° |
| 2026-04-28 15:21 | 8.72644 | -8.80900 | 34877 ft | 457 kts | 125° |
| 2026-04-28 15:22 | 8.69031 | -8.75611 | 34881 ft | 457 kts | 125° |
| 2026-04-28 15:22 | 8.65437 | -8.70353 | 34882 ft | 457 kts | 125° |
| 2026-04-28 15:23 | 8.61824 | -8.65070 | 34879 ft | 456 kts | 125° |
| 2026-04-28 15:23 | 8.58215 | -8.59795 | 34880 ft | 456 kts | 125° |
| 2026-04-28 15:24 | 8.54605 | -8.54522 | 34877 ft | 456 kts | 125° |
| 2026-04-28 15:24 | 8.51011 | -8.49276 | 34878 ft | 456 kts | 125° |
| 2026-04-28 15:25 | 8.47399 | -8.44005 | 34877 ft | 456 kts | 125° |
| 2026-04-28 15:25 | 8.43792 | -8.38737 | 34877 ft | 455 kts | 125° |
| 2026-04-28 15:26 | 8.40188 | -8.33476 | 34878 ft | 455 kts | 125° |
| 2026-04-28 15:26 | 8.36602 | -8.28248 | 34880 ft | 455 kts | 125° |
| 2026-04-28 15:27 | 8.32998 | -8.22984 | 34877 ft | 455 kts | 125° |
| 2026-04-28 15:27 | 8.29405 | -8.17733 | 34878 ft | 454 kts | 125° |
| 2026-04-28 15:28 | 8.25808 | -8.12479 | 34879 ft | 454 kts | 125° |
| 2026-04-28 15:28 | 8.22210 | -8.07224 | 34880 ft | 454 kts | 125° |
| 2026-04-28 15:29 | 8.18633 | -8.02006 | 34879 ft | 454 kts | 125° |
| 2026-04-28 15:29 | 8.15034 | -7.96758 | 34878 ft | 454 kts | 125° |
| 2026-04-28 15:30 | 8.11439 | -7.91511 | 34883 ft | 454 kts | 125° |
| 2026-04-28 15:30 | 8.07842 | -7.86265 | 34888 ft | 454 kts | 125° |
| 2026-04-28 15:31 | 8.04242 | -7.81019 | 34887 ft | 454 kts | 125° |
| 2026-04-28 15:31 | 8.00655 | -7.75794 | 34887 ft | 454 kts | 125° |
| 2026-04-28 15:32 | 7.97057 | -7.70554 | 34888 ft | 454 kts | 125° |
| 2026-04-28 15:32 | 7.93461 | -7.65317 | 34888 ft | 454 kts | 125° |
| 2026-04-28 15:33 | 7.89857 | -7.60070 | 34873 ft | 454 kts | 125° |
| 2026-04-28 15:33 | 7.86262 | -7.54839 | 34870 ft | 454 kts | 125° |
| 2026-04-28 15:34 | 7.82660 | -7.49602 | 34868 ft | 453 kts | 125° |
| 2026-04-28 15:34 | 7.79064 | -7.44376 | 34867 ft | 453 kts | 125° |
| 2026-04-28 15:35 | 7.75466 | -7.39147 | 34871 ft | 454 kts | 125° |
| 2026-04-28 15:35 | 7.70087 | -7.31335 | 34870 ft | 453 kts | 125° |
| 2026-04-28 15:36 | 7.66489 | -7.26106 | 34869 ft | 454 kts | 125° |
| 2026-04-28 15:36 | 7.62880 | -7.20869 | 34868 ft | 454 kts | 125° |
| 2026-04-28 15:37 | 7.59297 | -7.15670 | 34868 ft | 454 kts | 125° |
| 2026-04-28 15:37 | 7.55695 | -7.10445 | 34870 ft | 454 kts | 125° |
| 2026-04-28 15:38 | 7.52085 | -7.05214 | 34872 ft | 454 kts | 125° |
| 2026-04-28 15:38 | 7.48502 | -7.00020 | 34868 ft | 454 kts | 125° |
| 2026-04-28 15:39 | 7.44896 | -6.94793 | 34869 ft | 453 kts | 125° |
| 2026-04-28 15:39 | 7.41292 | -6.89571 | 34868 ft | 453 kts | 125° |
| 2026-04-28 15:40 | 7.37694 | -6.84361 | 34871 ft | 453 kts | 125° |
| 2026-04-28 15:40 | 7.34089 | -6.79141 | 34868 ft | 453 kts | 125° |
| 2026-04-28 15:41 | 7.30503 | -6.73952 | 34870 ft | 453 kts | 125° |
| 2026-04-28 15:41 | 7.26899 | -6.68736 | 34868 ft | 453 kts | 125° |
| 2026-04-28 15:42 | 7.23291 | -6.63522 | 34870 ft | 453 kts | 125° |
| 2026-04-28 15:42 | 7.19711 | -6.58344 | 34868 ft | 453 kts | 125° |
| 2026-04-28 15:43 | 7.16104 | -6.53131 | 34871 ft | 453 kts | 125° |
| 2026-04-28 15:43 | 7.12497 | -6.47921 | 34869 ft | 453 kts | 125° |
| 2026-04-28 15:44 | 7.08916 | -6.42748 | 34867 ft | 453 kts | 125° |
| 2026-04-28 15:44 | 7.05306 | -6.37537 | 34872 ft | 453 kts | 125° |
| 2026-04-28 15:45 | 7.01692 | -6.32320 | 34872 ft | 454 kts | 125° |
| 2026-04-28 15:45 | 6.98083 | -6.27112 | 34869 ft | 454 kts | 125° |
| 2026-04-28 15:46 | 6.94469 | -6.21898 | 34869 ft | 454 kts | 125° |
| 2026-04-28 15:46 | 6.90855 | -6.16686 | 34867 ft | 454 kts | 125° |
| 2026-04-28 15:47 | 6.87257 | -6.11501 | 34870 ft | 454 kts | 125° |
| 2026-04-28 15:47 | 6.83647 | -6.06297 | 34867 ft | 453 kts | 125° |
| 2026-04-28 15:48 | 6.80028 | -6.01083 | 34870 ft | 454 kts | 125° |
| 2026-04-28 15:48 | 6.76395 | -5.95879 | 34868 ft | 454 kts | 128° |
| 2026-04-28 15:49 | 6.71954 | -5.91429 | 34871 ft | 452 kts | 139° |
| 2026-04-28 15:49 | 6.67222 | -5.87236 | 34860 ft | 453 kts | 139° |
| 2026-04-28 15:50 | 6.62495 | -5.83037 | 34859 ft | 453 kts | 139° |
| 2026-04-28 15:50 | 6.57778 | -5.78839 | 34860 ft | 453 kts | 139° |
| 2026-04-28 15:51 | 6.53088 | -5.74663 | 34860 ft | 453 kts | 139° |
| 2026-04-28 15:51 | 6.48356 | -5.70450 | 34861 ft | 453 kts | 139° |
| 2026-04-28 15:52 | 6.43633 | -5.66243 | 34859 ft | 453 kts | 139° |
| 2026-04-28 15:52 | 6.38931 | -5.62065 | 34859 ft | 453 kts | 139° |
| 2026-04-28 15:53 | 6.34204 | -5.57858 | 34862 ft | 453 kts | 139° |
| 2026-04-28 15:53 | 6.29480 | -5.53655 | 34860 ft | 453 kts | 139° |
| 2026-04-28 15:54 | 6.24755 | -5.49453 | 34859 ft | 453 kts | 139° |
| 2026-04-28 15:54 | 6.20031 | -5.45250 | 34860 ft | 453 kts | 139° |
| 2026-04-28 15:55 | 6.15305 | -5.41052 | 34859 ft | 453 kts | 139° |
| 2026-04-28 15:55 | 6.10613 | -5.36881 | 34861 ft | 453 kts | 139° |
| 2026-04-28 15:56 | 6.05889 | -5.32683 | 34860 ft | 453 kts | 139° |
| 2026-04-28 15:56 | 6.01165 | -5.28490 | 34859 ft | 453 kts | 139° |
| 2026-04-28 15:57 | 5.96431 | -5.24289 | 34859 ft | 453 kts | 139° |
| 2026-04-28 15:57 | 5.91732 | -5.20117 | 34861 ft | 453 kts | 139° |
| 2026-04-28 15:58 | 5.87001 | -5.15916 | 34860 ft | 453 kts | 139° |
| 2026-04-28 15:58 | 5.82285 | -5.11729 | 34859 ft | 452 kts | 139° |
| 2026-04-28 15:59 | 5.78360 | -5.08246 | 34859 ft | 452 kts | 139° |
| 2026-04-28 15:59 | 5.72858 | -5.03367 | 34859 ft | 452 kts | 139° |
| 2026-04-28 16:00 | 5.68140 | -4.99184 | 34862 ft | 452 kts | 139° |
| 2026-04-28 16:00 | 5.63414 | -4.94996 | 34859 ft | 452 kts | 139° |
| 2026-04-28 16:01 | 5.58690 | -4.90808 | 34859 ft | 452 kts | 139° |
| 2026-04-28 16:01 | 5.53972 | -4.86625 | 34859 ft | 452 kts | 139° |
| 2026-04-28 16:02 | 5.49381 | -4.82376 | 34849 ft | 453 kts | 130° |
| 2026-04-28 16:02 | 5.47735 | -4.79690 | 34859 ft | 454 kts | 113° |
| 2026-04-28 16:02 | 5.46822 | -4.76665 | 34866 ft | 453 kts | 103° |
| 2026-04-28 16:03 | 5.45589 | -4.70438 | 34839 ft | 454 kts | 101° |
| 2026-04-28 16:03 | 5.44997 | -4.67336 | 34312 ft | 451 kts | 101° |
| 2026-04-28 16:03 | 5.44404 | -4.64231 | 33479 ft | 454 kts | 101° |
| 2026-04-28 16:04 | 5.43806 | -4.61103 | 32634 ft | 457 kts | 101° |
| 2026-04-28 16:04 | 5.43205 | -4.57964 | 31814 ft | 458 kts | 101° |
| 2026-04-28 16:04 | 5.42607 | -4.54855 | 30969 ft | 459 kts | 101° |
| 2026-04-28 16:04 | 5.42197 | -4.52728 | 30369 ft | 460 kts | 101° |
| 2026-04-28 16:05 | 5.41388 | -4.48533 | 29141 ft | 462 kts | 101° |
| 2026-04-28 16:05 | 5.40771 | -4.45371 | 28218 ft | 462 kts | 101° |
| 2026-04-28 16:05 | 5.40147 | -4.42204 | 27230 ft | 462 kts | 101° |
| 2026-04-28 16:05 | 5.39732 | -4.40097 | 26485 ft | 464 kts | 101° |
| 2026-04-28 16:06 | 5.39134 | -4.36908 | 25285 ft | 467 kts | 101° |
| 2026-04-28 16:06 | 5.38539 | -4.33705 | 24291 ft | 464 kts | 101° |
| 2026-04-28 16:06 | 5.37950 | -4.30557 | 23569 ft | 454 kts | 101° |
| 2026-04-28 16:06 | 5.37362 | -4.27472 | 22804 ft | 445 kts | 101° |
| 2026-04-28 16:07 | 5.36763 | -4.24454 | 22021 ft | 437 kts | 101° |
| 2026-04-28 16:07 | 5.36145 | -4.21482 | 21108 ft | 433 kts | 101° |
| 2026-04-28 16:07 | 5.34927 | -4.15657 | 19452 ft | 421 kts | 98° |
| 2026-04-28 16:08 | 5.34801 | -4.12748 | 18651 ft | 414 kts | 85° |
| 2026-04-28 16:08 | 5.35367 | -4.09981 | 17967 ft | 407 kts | 73° |
| 2026-04-28 16:08 | 5.36229 | -4.07302 | 17222 ft | 401 kts | 71° |
| 2026-04-28 16:09 | 5.37982 | -4.02066 | 15758 ft | 390 kts | 71° |
| 2026-04-28 16:09 | 5.38858 | -3.99504 | 14970 ft | 385 kts | 71° |
| 2026-04-28 16:09 | 5.39896 | -3.97053 | 14404 ft | 377 kts | 63° |
| 2026-04-28 16:10 | 5.43003 | -3.93086 | 13865 ft | 347 kts | 49° |
| 2026-04-28 16:10 | 5.44610 | -3.91338 | 13620 ft | 333 kts | 49° |
| 2026-04-28 16:10 | 5.47630 | -3.88093 | 13217 ft | 308 kts | 49° |
| 2026-04-28 16:11 | 5.50475 | -3.85076 | 12828 ft | 288 kts | 49° |
| 2026-04-28 16:11 | 5.53202 | -3.82205 | 12112 ft | 280 kts | 49° |
| 2026-04-28 16:12 | 5.55898 | -3.79402 | 11302 ft | 278 kts | 49° |
| 2026-04-28 16:12 | 5.57230 | -3.78004 | 10891 ft | 277 kts | 49° |
| 2026-04-28 16:13 | 5.59857 | -3.75209 | 10029 ft | 277 kts | 49° |
| 2026-04-28 16:13 | 5.61161 | -3.73781 | 9600 ft | 277 kts | 49° |
| 2026-04-28 16:13 | 5.62509 | -3.70324 | 8660 ft | 278 kts | 95° |
| 2026-04-28 16:14 | 5.60646 | -3.67043 | 8069 ft | 284 kts | 142° |
| 2026-04-28 16:14 | 5.56847 | -3.66243 | 7567 ft | 290 kts | 192° |
| 2026-04-28 16:15 | 5.53737 | -3.68675 | 6810 ft | 291 kts | 240° |
| 2026-04-28 16:15 | 5.52804 | -3.70477 | 6311 ft | 291 kts | 241° |
| 2026-04-28 16:15 | 5.51834 | -3.72245 | 5908 ft | 287 kts | 240° |
| 2026-04-28 16:16 | 5.49915 | -3.75708 | 5038 ft | 283 kts | 240° |
| 2026-04-28 16:16 | 5.48972 | -3.77432 | 4605 ft | 281 kts | 243° |
| 2026-04-28 16:17 | 5.47131 | -3.80806 | 3732 ft | 277 kts | 216° |
| 2026-04-28 16:17 | 5.45381 | -3.81456 | 3491 ft | 266 kts | 186° |
| 2026-04-28 16:17 | 5.43589 | -3.81766 | 3313 ft | 254 kts | 197° |
| 2026-04-28 16:17 | 5.42024 | -3.82449 | 3164 ft | 236 kts | 208° |
| 2026-04-28 16:18 | 5.40660 | -3.83253 | 3030 ft | 219 kts | 212° |
| 2026-04-28 16:18 | 5.39461 | -3.84087 | 2848 ft | 208 kts | 217° |
| 2026-04-28 16:18 | 5.38306 | -3.84913 | 2577 ft | 201 kts | 209° |
| 2026-04-28 16:18 | 5.37116 | -3.85620 | 2309 ft | 192 kts | 214° |
| 2026-04-28 16:19 | 5.36050 | -3.86321 | 2056 ft | 174 kts | 210° |
| 2026-04-28 16:19 | 5.35068 | -3.86898 | 1833 ft | 156 kts | 211° |
| 2026-04-28 16:19 | 5.34203 | -3.87431 | 1624 ft | 136 kts | 212° |
| 2026-04-28 16:19 | 5.33435 | -3.87905 | 1448 ft | 126 kts | 212° |
| 2026-04-28 16:20 | 5.32721 | -3.88408 | 1344 ft | 125 kts | 219° |
| 2026-04-28 16:20 | 5.32073 | -3.88989 | 1231 ft | 125 kts | 225° |
| 2026-04-28 16:20 | 5.31476 | -3.89626 | 1005 ft | 124 kts | 226° |
| 2026-04-28 16:20 | 5.30861 | -3.90230 | 807 ft | 123 kts | 221° |
| 2026-04-28 16:21 | 5.30185 | -3.90759 | 690 ft | 124 kts | 214° |
| 2026-04-28 16:21 | 5.29433 | -3.91183 | 605 ft | 125 kts | 208° |
| 2026-04-28 16:21 | 5.28654 | -3.91542 | 330 ft | 123 kts | 202° |
| 2026-04-28 16:21 | 5.27856 | -3.91865 | 143 ft | 124 kts | 203° |
| 2026-04-28 16:22 | 5.27077 | -3.92191 | 34 ft | 118 kts | 203° |
| 2026-04-28 16:22 | 5.26488 | -3.92437 | 30 ft | 55 kts | 202° |
| 2026-04-28 16:22 | 5.26199 | -3.92557 | 32 ft | 41 kts | 202° |
| 2026-04-28 16:22 | 5.25954 | -3.92658 | 33 ft | 35 kts | 202° |
| 2026-04-28 16:23 | 5.25744 | -3.92744 | 32 ft | 30 kts | 202° |
| 2026-04-28 16:23 | 5.25595 | -3.92806 | 32 ft | 20 kts | 202° |
| 2026-04-28 16:23 | 5.25483 | -3.92855 | 33 ft | 15 kts | 213° |
| 2026-04-28 16:23 | 5.25473 | -3.92923 | 32 ft | 8 kts | 288° |
| 2026-04-28 16:24 | 5.25488 | -3.92963 | 33 ft | 4 kts | 290° |
| 2026-04-28 16:24 | 5.25495 | -3.92982 | 33 ft | 4 kts | 290° |
| 2026-04-28 16:24 | 5.25500 | -3.92995 | 33 ft | 0 kts | 290° |
| 2026-04-28 16:24 | 5.25500 | -3.93004 | 33 ft | 1 kts | 276° |
| 2026-04-28 16:25 | 5.25493 | -3.93026 | 33 ft | 8 kts | 250° |
| 2026-04-28 16:25 | 5.25494 | -3.93066 | 33 ft | 2 kts | 306° |
| 2026-04-28 16:25 | 5.25497 | -3.93069 | 33 ft | 1 kts | 310° |
| 2026-04-28 16:25 | 5.25512 | -3.93085 | 34 ft | 6 kts | 313° |
| 2026-04-28 16:26 | 5.25547 | -3.93118 | 34 ft | 0 kts | 320° |
| 2026-04-28 16:26 | 5.25553 | -3.93123 | 34 ft | 1 kts | 319° |
| 2026-04-28 16:26 | 5.25555 | -3.93125 | 34 ft | 1 kts | 319° |
| 2026-04-28 16:26 | 5.25558 | -3.93128 | 34 ft | 0 kts | 319° |